PWSweather.com
Personal Weather Stations
Station Observations
KNJOAKLA6
Oakland, NJ 07436

Oakland, NJ 07436

Lat: 41.041, Lon: -74.231

Elevation: 280

Station Type: Davis VP 2

http://stratacolorado.com/oaknjwx/

Latest ConditionsUpdated 6:00:00 AM EST Wednesday, Nov 26, 2014
Currently Today's Max Today's Min Today's Average
Temperature 41.1°F5.1°C 41.1°F5.1°C 37.4°F3.0°C 38.3°F3.5°C
Dew Point 33.1°F0.6°C 35.5°F1.9°C 33.1°F0.6°C 34.8°F1.6°C
Winds 3.0 mph N4.8 kmh N 3.0 mph N4.8 kmh N - 0.3 mph 0.5 kmh
Wind Gusts 10.0 mph16.1 kmh 11.0 mph17.7 kmh - -
Humidity 73% 89% 73% 87%
Pressure 30.10 in1019.3 mb 30.19 in1022.4 mb 30.10 in1019.3 mb -
Hour Temp Dew Point Humidity Winds Wind Gusts Pressure Precip Precip Rate Daily Precip Total
06:00 AM 41.1°F5.1°C 33.1°F0.6°C 73% 3.0 mph N4.8 kmh N 10.0 mph16.1 kmh 30.10 in1019.3 mb 0.00 in0.0 mm 0.00 in/hr0.0 mm/hr 0.00 in0.0 mm
05:50 AM 40.4°F4.7°C 33.1°F0.6°C 75% 2.0 mph N3.2 kmh N 9.0 mph14.5 kmh 30.10 in1019.3 mb 0.00 in0.0 mm 0.00 in/hr0.0 mm/hr 0.00 in0.0 mm
05:40 AM 39.5°F4.2°C 34.2°F1.2°C 81% 3.0 mph N4.8 kmh N 11.0 mph17.7 kmh 30.10 in1019.3 mb 0.00 in0.0 mm 0.00 in/hr0.0 mm/hr 0.00 in0.0 mm
05:30 AM 38.8°F3.8°C 34.7°F1.5°C 85% 1.0 mph NE1.6 kmh NE 7.0 mph11.3 kmh 30.11 in1019.6 mb 0.00 in0.0 mm 0.00 in/hr0.0 mm/hr 0.00 in0.0 mm
05:20 AM 38.6°F3.7°C 35.4°F1.9°C 88% Calm Calm 3.0 mph4.8 kmh 30.11 in1019.6 mb 0.00 in0.0 mm 0.00 in/hr0.0 mm/hr 0.00 in0.0 mm
05:10 AM 38.5°F3.6°C 35.5°F1.9°C 89% Calm Calm 4.0 mph6.4 kmh 30.13 in1020.3 mb 0.00 in0.0 mm 0.00 in/hr0.0 mm/hr 0.00 in0.0 mm
05:00 AM 38.4°F3.6°C 35.4°F1.9°C 89% 2.0 mph N3.2 kmh N 5.0 mph8.0 kmh 30.13 in1020.3 mb 0.00 in0.0 mm 0.00 in/hr0.0 mm/hr 0.00 in0.0 mm
04:50 AM 38.4°F3.6°C 35.4°F1.9°C 89% Calm Calm 1.0 mph1.6 kmh 30.14 in1020.7 mb 0.00 in0.0 mm 0.00 in/hr0.0 mm/hr 0.00 in0.0 mm
04:40 AM 38.4°F3.6°C 35.2°F1.8°C 88% Calm Calm 1.0 mph1.6 kmh 30.15 in1021.0 mb 0.00 in0.0 mm 0.00 in/hr0.0 mm/hr 0.00 in0.0 mm
04:30 AM 38.3°F3.5°C 35.1°F1.7°C 88% Calm Calm -- 30.14 in1020.7 mb 0.00 in0.0 mm 0.00 in/hr0.0 mm/hr 0.00 in0.0 mm
04:20 AM 38.3°F3.5°C 35.1°F1.7°C 88% Calm Calm 2.0 mph3.2 kmh 30.14 in1020.7 mb 0.00 in0.0 mm 0.00 in/hr0.0 mm/hr 0.00 in0.0 mm
04:10 AM 38.4°F3.6°C 35.2°F1.8°C 88% Calm Calm -- 30.14 in1020.7 mb 0.00 in0.0 mm 0.00 in/hr0.0 mm/hr 0.00 in0.0 mm
04:00 AM 38.4°F3.6°C 35.2°F1.8°C 88% Calm Calm -- 30.15 in1021.0 mb 0.00 in0.0 mm 0.00 in/hr0.0 mm/hr 0.00 in0.0 mm
03:50 AM 38.4°F3.6°C 35.2°F1.8°C 88% Calm Calm 1.0 mph1.6 kmh 30.15 in1021.0 mb 0.00 in0.0 mm 0.00 in/hr0.0 mm/hr 0.00 in0.0 mm
03:40 AM 38.4°F3.6°C 35.2°F1.8°C 88% Calm Calm 1.0 mph1.6 kmh 30.16 in1021.3 mb 0.00 in0.0 mm 0.00 in/hr0.0 mm/hr 0.00 in0.0 mm
03:30 AM 38.4°F3.6°C 35.2°F1.8°C 88% Calm Calm -- 30.17 in1021.7 mb 0.00 in0.0 mm 0.00 in/hr0.0 mm/hr 0.00 in0.0 mm
03:20 AM 38.4°F3.6°C 35.2°F1.8°C 88% Calm Calm -- 30.17 in1021.7 mb 0.00 in0.0 mm 0.00 in/hr0.0 mm/hr 0.00 in0.0 mm
03:10 AM 38.4°F3.6°C 35.2°F1.8°C 88% Calm Calm -- 30.17 in1021.7 mb 0.00 in0.0 mm 0.00 in/hr0.0 mm/hr 0.00 in0.0 mm
03:00 AM 38.4°F3.6°C 35.2°F1.8°C 88% Calm Calm -- 30.18 in1022.0 mb 0.00 in0.0 mm 0.00 in/hr0.0 mm/hr 0.00 in0.0 mm
02:50 AM 38.3°F3.5°C 35.3°F1.8°C 89% Calm Calm 1.0 mph1.6 kmh 30.18 in1022.0 mb 0.00 in0.0 mm 0.00 in/hr0.0 mm/hr 0.00 in0.0 mm
02:40 AM 38.2°F3.4°C 35.2°F1.8°C 89% Calm Calm 1.0 mph1.6 kmh 30.19 in1022.4 mb 0.00 in0.0 mm 0.00 in/hr0.0 mm/hr 0.00 in0.0 mm
02:30 AM 38.1°F3.4°C 34.9°F1.6°C 88% Calm Calm 1.0 mph1.6 kmh 30.17 in1021.7 mb 0.00 in0.0 mm 0.00 in/hr0.0 mm/hr 0.00 in0.0 mm
02:20 AM 38.0°F3.3°C 34.8°F1.6°C 88% Calm Calm 1.0 mph1.6 kmh 30.17 in1021.7 mb 0.00 in0.0 mm 0.00 in/hr0.0 mm/hr 0.00 in0.0 mm
02:10 AM 38.0°F3.3°C 35.0°F1.7°C 89% Calm Calm 1.0 mph1.6 kmh 30.16 in1021.3 mb 0.00 in0.0 mm 0.00 in/hr0.0 mm/hr 0.00 in0.0 mm
02:00 AM 37.9°F3.3°C 35.0°F1.7°C 89% Calm Calm 2.0 mph3.2 kmh 30.15 in1021.0 mb 0.00 in0.0 mm 0.00 in/hr0.0 mm/hr 0.00 in0.0 mm
01:50 AM 37.9°F3.3°C 35.0°F1.7°C 89% Calm Calm 1.0 mph1.6 kmh 30.15 in1021.0 mb 0.00 in0.0 mm 0.00 in/hr0.0 mm/hr 0.00 in0.0 mm
01:40 AM 37.8°F3.2°C 34.9°F1.6°C 89% Calm Calm 1.0 mph1.6 kmh 30.15 in1021.0 mb 0.00 in0.0 mm 0.00 in/hr0.0 mm/hr 0.00 in0.0 mm
01:30 AM 37.8°F3.2°C 34.6°F1.4°C 88% Calm Calm 1.0 mph1.6 kmh 30.13 in1020.3 mb 0.00 in0.0 mm 0.00 in/hr0.0 mm/hr 0.00 in0.0 mm
01:20 AM 37.8°F3.2°C 34.6°F1.4°C 88% Calm Calm -- 30.14 in1020.7 mb 0.00 in0.0 mm 0.00 in/hr0.0 mm/hr 0.00 in0.0 mm
01:10 AM 37.7°F3.2°C 34.5°F1.4°C 88% Calm Calm -- 30.13 in1020.3 mb 0.00 in0.0 mm 0.00 in/hr0.0 mm/hr 0.00 in0.0 mm
01:00 AM 37.7°F3.2°C 34.5°F1.4°C 88% Calm Calm -- 30.13 in1020.3 mb 0.00 in0.0 mm 0.00 in/hr0.0 mm/hr 0.00 in0.0 mm
12:50 AM 37.7°F3.2°C 34.5°F1.4°C 88% Calm Calm -- 30.14 in1020.7 mb 0.00 in0.0 mm 0.00 in/hr0.0 mm/hr 0.00 in0.0 mm
12:40 AM 37.7°F3.2°C 34.5°F1.4°C 88% Calm Calm -- 30.13 in1020.3 mb 0.00 in0.0 mm 0.00 in/hr0.0 mm/hr 0.00 in0.0 mm
12:30 AM 37.6°F3.1°C 34.4°F1.3°C 88% Calm Calm -- 30.14 in1020.7 mb 0.00 in0.0 mm 0.00 in/hr0.0 mm/hr 0.00 in0.0 mm
12:20 AM 37.6°F3.1°C 34.4°F1.3°C 88% Calm Calm -- 30.14 in1020.7 mb 0.00 in0.0 mm 0.00 in/hr0.0 mm/hr 0.00 in0.0 mm
12:10 AM 37.4°F3.0°C 34.2°F1.2°C 88% Calm Calm 1.0 mph1.6 kmh 30.14 in1020.7 mb 0.00 in0.0 mm 0.00 in/hr0.0 mm/hr 0.00 in0.0 mm
12:00 AM 37.4°F3.0°C 34.2°F1.2°C 88% Calm Calm -- 30.12 in1020.0 mb 0.00 in0.0 mm 0.00 in/hr0.0 mm/hr 0.00 in0.0 mm